Hovedside
METAR-TAF:

METAR-TAF

Lufthavner :

Sindal, Danmark

breddegrad: 57-30N, lengdegrad: 010-13E, høyde over havet: 28 m

Gjeldene værobservasjon

Denne rapporten ble laget for 9 timer og 51 minutter siden, klokken 12:50 UTC
Vind 7 kt fra Øst-nordøst
Temperatur 19°C
Luftfuktighet 68%
Trykk 1012 hPa
Sikt 10 km eller mer
Få skyer i en høyde av 1800 ft
Spredte skyer i en høyde av 7000 ft

METAR: EKSN 241250Z 06007KT 9999 FEW018 SCT070 19/13 Q1012

Tid: 00:41 (22:41 UTC)

Varsel

Denne rapporten ble laget for 13 timer og 45 minutter siden, klokken 08:56 UTC
Varsel gyldig fra 24. klokken 09 UTC til 24. klokken 15 UTC
Vind 8 kt fra Øst-nordøst
Sikt 10 km eller mer
Spredte skyer i en høyde av 2000 ft
Midlertidig
fra 24. klokken 12 UTC til 24. klokken 15 UTC
Brutte skyer i en høyde av 1200 ft
lett regn

TAF: EKSN 240856Z 2409/2415 06008KT 9999 SCT020 TEMPO 2412/2415 -RA BKN012

Værobservasjoner og værvarsel for over 4000 flyplasser (METAR- og TAF-rapporter).

Tilgjengelige stasjoner er representert av de røde og gule prikkene på kartet.

Hold musepekeren over prikken for å se navnet på stasjonen.

Klikk så for å se værobservasjoner og -varsler.

For å forandre kartet kan du klikke på den grønne knappen med svart kryss for å zoome inn, på den grønne knappen med strek for å zoome ut, eller på de grønne pilene for å se tilstøtende kart.


METAR-TAF: